Hlavní strana
METAR-TAF:

METAR-TAF

Letiště :

Nashville, Tennessee, Spojené státy americké

zeměpisná šířka: 36-07-08N, zeměpisná délka: 086-41-21W, výška: 182 m

Aktuální stav počasí

Zpráva byla vytvořena před 52 minutami, v 08:53 UTC
Bezvětří
Teplota 17°C
Vlhkost vzduchu 88%
Tlak 1019 hPa
Viditelnost: 16.1 km
Jasno

METAR: KBNA 300853Z 00000KT 10SM CLR 17/15 A3010 RMK AO2 SLP186 T01720150 52003

Čas: 04:45 (09:45 UTC)

Předpověď počasí

Zpráva byla vytvořena před 4 hodinami a 25 minutami, v 05:20 UTC
Předpověď platná od 30 v 06 UTC do 31 v 06 UTC
Severoseverozápadní vítr 4 kt
Viditelnost: 10 km
Skoro jasno ve výšce 7000 ft
Oblačno až skoro zataženo ve výšce 9000 ft
Od 30 v 1600 UTC
Severní vítr 5 kt
Viditelnost: 10 km
Skoro jasno ve výšce 25000 ft

TAF: KBNA 300520Z 3006/3106 34004KT P6SM FEW070 BKN090 FM301600 36005KT P6SM FEW250

Stav a předpovědi počasí z více než 4 000 letišť (zprávy METAR a TAF).

Červené a žluté tečky na mapě představují dostupné meteorologické stanice.

Když kurzor umístíte na tečku, zobrazí se název stanice.

Pak kliknutím zobrazíte stav a předpověď počasí.

Chcete-li změnit mapu, kliknutím na zelené tlačítko se znaménkem +mapu přiblížíte, kliknutím na zelené tlačítko se znaménkem – mapu oddálíte a kliknutím na zelené šipky přejdete na sousední mapy.


METAR-TAF: